• Join FlightAware (Why Join?)
  • Login
  • US Flag 
02:14PM EDT


 

Airport Tracker/Info


-or-


 

Live Flight TrackerFlight Track Log ✈ KAP910 ✈ 09-May-2013 ✈ KACK - KBOS

Flight Track Log - Related Links

Times and Time Zones

All times are in EDT time to prevent confusion due to time zone crossing. See the KAP910 flight status page for this flight to view local times or setup timezone preferences in your user account.

Time Position Orientation Groundspeed Altitude Reporting Facility
EDT Latitude Longitude Course Direction KTS MPH feet Rate Location/Type
11:15AM 41.4059 -70.1752 331° Northwest  Level FlightAware Approximate
11:16AM 41.4249 -70.1915 323° Northwest  Level FlightAware Approximate
11:17AM 41.4482 -70.2149 323° Northwest  Level FlightAware Approximate
11:18AM 41.4734 -70.2347 330° Northwest  Level FlightAware Approximate
11:19AM 41.4987 -70.2543 330° Northwest  Level FlightAware Approximate
11:20AM 41.5240 -70.2738 330° Northwest  Level FlightAware Approximate
11:21AM 41.5493 -70.2934 330° Northwest  Level FlightAware Approximate
11:22AM 41.5746 -70.3130 330° Northwest  Level FlightAware Approximate
11:23AM 41.5999 -70.3326 330° Northwest  Level FlightAware Approximate
11:23AM 41.7667 -70.4667 330° Northwest 173 199 4,000  Level KA90
11:24AM 41.6252 -70.3522 330° Northwest  Level FlightAware Approximate
11:24AM 41.8167 -70.5000 334° Northwest 170 196 4,000  Level KA90
11:25AM 41.6505 -70.3719 330° Northwest  Level FlightAware Approximate
11:25AM 41.8500 -70.5500 312° West 172 198 4,000  Level KA90
11:26AM 41.6758 -70.3915 330° Northwest  Level FlightAware Approximate
11:26AM 41.8833 -70.5833 323° Northwest 169 194 4,100  Level KA90
11:27AM 41.7010 -70.4112 330° Northwest  Level FlightAware Approximate
11:27AM 41.9333 -70.6333 323° Northwest 170 196 4,100  Level KA90
11:28AM 41.7263 -70.4309 330° Northwest  Level FlightAware Approximate
11:28AM 41.9667 -70.6667 323° Northwest 168 193 4,000  Level KA90
11:29AM 42.0000 -70.6833 340° North 169 194 4,000  Level KA90
11:30AM 42.0333 -70.7333 312° West 177 204 4,100  Climbing KA90
11:31AM 42.0333 -70.7833 270° West 159 183 4,000 -60 Descending KA90
11:32AM 42.0167 -70.8333 246° West 159 183 4,000  Level KA90
11:33AM 42.0000 -70.9000 251° West 161 185 4,000  Level KA90
11:34AM 41.9833 -70.9333 236° Southwest 165 190 4,000  Level KA90
11:35AM 41.9667 -70.8833 114° Southeast 162 186 4,000  Level KA90
11:36AM 41.9833 -70.8167 71° East 165 190 4,000  Level KA90
11:37AM 42.0333 -70.8167 360° North 178 205 4,100  Climbing KA90
11:38AM 42.0500 -70.8500 304° West 169 194 4,000 -60 Descending KA90
11:39AM 42.0167 -70.9167 236° Southwest 163 188 4,000  Level KA90
11:40AM 42.0167 -70.9833 270° West 162 186 4,000  Level KA90
11:41AM 42.0000 -71.0333 246° West 162 186 4,000  Level KA90
11:42AM 41.9833 -71.1000 251° West 171 197 4,000  Level KA90
11:43AM 42.0000 -71.1500 294° West 174 200 4,100  Climbing KA90
11:44AM 42.0500 -71.1667 346° North 182 209 4,000 -60 Descending KA90
11:45AM 42.0833 -71.1333 37° Northeast 181 208 4,000  Level KA90
11:46AM 42.1167 -71.1167 20° North 179 206 4,000 -240 Level KA90
11:47AM 42.1833 -71.1000 10° North 186 214 3,600 -540 Descending KA90
11:48AM 42.2333 -71.0667 26° Northeast 182 209 2,900 -720 Descending KA90